createdAt,value
2023-03-31T00:00:57.931Z,1.13
2023-03-31T00:03:25.383Z,0.90
2023-03-31T00:05:59.794Z,0.98
2023-03-31T00:08:30.237Z,0.80
2023-03-31T00:11:01.696Z,0.80
2023-03-31T00:13:29.565Z,0.82
2023-03-31T00:16:03.745Z,0.85
2023-03-31T00:18:31.253Z,0.88
2023-03-31T00:21:24.510Z,0.57
2023-03-31T00:23:54.566Z,0.73
2023-03-31T00:26:23.056Z,0.98
2023-03-31T00:28:50.926Z,0.80
2023-03-31T00:31:18.859Z,0.82
2023-03-31T00:33:46.056Z,0.88
2023-03-31T00:36:13.286Z,0.90
2023-03-31T00:38:40.446Z,0.93
2023-03-31T00:41:08.576Z,0.90
2023-03-31T00:43:37.561Z,0.67
2023-03-31T00:48:48.461Z,0.70
2023-03-31T00:51:15.943Z,0.73
2023-03-31T00:53:55.334Z,0.82
2023-03-31T00:56:22.810Z,0.70
2023-03-31T00:58:50.230Z,1.00
2023-03-31T01:01:20.897Z,0.82
2023-03-31T01:03:48.461Z,0.90
2023-03-31T01:06:19.642Z,0.77
2023-03-31T01:08:48.252Z,0.85
2023-03-31T01:11:17.925Z,0.70
2023-03-31T01:13:45.999Z,0.90
2023-03-31T01:16:13.292Z,0.70
2023-03-31T01:18:40.531Z,0.75
2023-03-31T01:21:34.108Z,0.50
2023-03-31T01:24:19.922Z,0.70
2023-03-31T01:27:11.299Z,0.73
2023-03-31T01:29:58.674Z,0.93
2023-03-31T01:32:44.781Z,0.85
2023-03-31T01:35:40.571Z,0.65
2023-03-31T01:38:18.055Z,0.73
2023-03-31T01:41:07.736Z,0.75
2023-03-31T01:44:17.485Z,0.70
2023-03-31T01:46:58.797Z,0.70
2023-03-31T01:50:00.877Z,0.90
2023-03-31T01:52:58.397Z,0.80
2023-03-31T01:55:35.681Z,0.70
2023-03-31T01:58:18.482Z,0.68
2023-03-31T02:01:09.642Z,0.90
2023-03-31T02:04:07.670Z,0.70
2023-03-31T02:06:39.805Z,0.70
2023-03-31T02:09:10.841Z,0.60
2023-03-31T02:11:38.509Z,0.70
2023-03-31T02:14:10.111Z,0.80
2023-03-31T02:16:41.796Z,0.70
2023-03-31T02:19:10.670Z,0.80
2023-03-31T02:21:40.492Z,0.68
2023-03-31T02:24:12.274Z,0.68
2023-03-31T02:26:47.458Z,0.65
2023-03-31T02:29:14.623Z,0.90
2023-03-31T02:31:48.996Z,0.70
2023-03-31T02:34:16.692Z,0.55
2023-03-31T02:36:45.655Z,0.68
2023-03-31T02:41:41.314Z,0.80
2023-03-31T02:44:08.953Z,0.57
2023-03-31T02:46:36.343Z,0.65
2023-03-31T02:49:06.924Z,0.50
2023-03-31T02:51:43.165Z,0.77
2023-03-31T02:54:43.033Z,0.65
2023-03-31T02:57:33.838Z,0.70
2023-03-31T03:00:41.910Z,0.40
2023-03-31T03:03:35.809Z,0.73
2023-03-31T03:06:27.825Z,0.70
2023-03-31T03:09:07.439Z,0.60
2023-03-31T03:12:02.426Z,0.60
2023-03-31T03:14:44.565Z,0.50
2023-03-31T03:17:17.371Z,0.57
2023-03-31T03:19:44.549Z,0.60
2023-03-31T03:22:11.747Z,0.50
2023-03-31T03:24:39.852Z,0.60
2023-03-31T03:27:07.065Z,0.47
2023-03-31T03:29:34.221Z,0.65
2023-03-31T03:32:01.371Z,0.57
2023-03-31T03:34:28.515Z,0.63
2023-03-31T03:36:55.702Z,0.65
2023-03-31T03:39:22.882Z,0.63
2023-03-31T03:41:50.236Z,0.77
2023-03-31T03:44:17.478Z,0.60
2023-03-31T03:46:44.723Z,0.47
2023-03-31T03:49:12.134Z,0.40
2023-03-31T03:51:39.298Z,0.50
2023-03-31T03:54:06.509Z,0.55
2023-03-31T03:56:33.718Z,0.50
2023-03-31T03:59:00.860Z,0.50
2023-03-31T04:01:28.056Z,0.38
2023-03-31T04:03:55.277Z,0.40
2023-03-31T04:06:22.450Z,0.43
2023-03-31T04:08:52.104Z,0.45
2023-03-31T04:11:19.663Z,0.60
2023-03-31T04:13:47.393Z,0.57
2023-03-31T04:16:14.814Z,0.60
2023-03-31T04:18:45.222Z,0.60
2023-03-31T04:21:15.491Z,0.52
2023-03-31T04:23:46.493Z,0.57
2023-03-31T04:26:14.989Z,0.55
2023-03-31T04:28:46.781Z,0.30
2023-03-31T04:31:15.618Z,0.73
2023-03-31T04:33:46.147Z,0.40
2023-03-31T04:36:19.112Z,0.73
2023-03-31T04:38:47.717Z,0.40
2023-03-31T04:41:15.333Z,0.90
2023-03-31T04:43:42.703Z,0.70
2023-03-31T04:46:10.196Z,0.40
2023-03-31T04:48:37.456Z,0.60
2023-03-31T04:51:04.828Z,0.70
2023-03-31T04:53:32.366Z,0.57
2023-03-31T04:55:59.676Z,0.50
2023-03-31T04:58:26.855Z,0.50
2023-03-31T05:00:54.492Z,0.52
2023-03-31T05:03:22.883Z,0.47
2023-03-31T05:05:50.334Z,0.57
2023-03-31T05:08:17.593Z,0.60
2023-03-31T05:10:45.252Z,0.30
2023-03-31T05:13:12.601Z,0.40
2023-03-31T05:15:40.540Z,0.70
2023-03-31T05:18:08.282Z,0.57
2023-03-31T05:20:36.199Z,1.33
2023-03-31T05:23:03.540Z,1.27
2023-03-31T05:25:33.402Z,1.30
2023-03-31T05:28:01.522Z,1.30
2023-03-31T05:30:29.708Z,1.00
2023-03-31T05:32:57.135Z,0.90
2023-03-31T05:35:24.485Z,1.30
2023-03-31T05:37:51.979Z,1.83
2023-03-31T05:40:19.324Z,1.38
2023-03-31T05:42:46.599Z,1.95
2023-03-31T05:45:13.841Z,2.22
2023-03-31T05:47:41.173Z,1.98
2023-03-31T05:50:09.285Z,1.60
2023-03-31T05:52:36.786Z,1.70
2023-03-31T05:55:04.950Z,1.70
2023-03-31T05:57:32.322Z,2.10
2023-03-31T05:59:59.606Z,1.48
2023-03-31T06:02:27.335Z,1.58
2023-03-31T06:04:54.682Z,1.33
2023-03-31T06:07:24.887Z,1.33
2023-03-31T06:09:52.270Z,1.33
2023-03-31T06:12:19.473Z,1.55
2023-03-31T06:14:46.629Z,1.40
2023-03-31T06:17:13.835Z,1.45
2023-03-31T06:19:41.065Z,1.30
2023-03-31T06:22:08.553Z,1.20
2023-03-31T06:24:35.726Z,1.40
2023-03-31T06:27:04.005Z,1.20
2023-03-31T06:29:31.258Z,1.30
2023-03-31T06:31:58.945Z,1.30
2023-03-31T06:34:26.417Z,1.30
2023-03-31T06:36:53.643Z,0.95
2023-03-31T06:39:20.945Z,1.10
2023-03-31T06:41:48.098Z,1.10
2023-03-31T06:44:16.725Z,1.17
2023-03-31T06:46:44.135Z,1.10
2023-03-31T06:49:14.165Z,1.00
2023-03-31T06:51:41.381Z,1.27
2023-03-31T06:54:08.558Z,1.20
2023-03-31T06:56:35.949Z,0.85
2023-03-31T06:59:03.137Z,1.13
2023-03-31T07:01:31.553Z,0.95
2023-03-31T07:03:58.811Z,1.25
2023-03-31T07:06:25.991Z,1.23
2023-03-31T07:08:53.452Z,0.80
2023-03-31T07:11:21.251Z,1.10
2023-03-31T07:13:48.613Z,1.33
2023-03-31T07:16:15.951Z,0.73
2023-03-31T07:18:43.165Z,1.10
2023-03-31T07:21:10.667Z,1.15
2023-03-31T07:23:38.710Z,0.98
2023-03-31T07:26:06.704Z,0.90
2023-03-31T07:28:34.192Z,1.02
2023-03-31T07:31:01.459Z,1.02
2023-03-31T07:33:28.657Z,1.30
2023-03-31T07:36:10.063Z,1.40
2023-03-31T07:38:37.679Z,1.20
2023-03-31T07:41:09.020Z,1.63
2023-03-31T07:43:37.110Z,1.60
2023-03-31T07:46:05.794Z,1.35
2023-03-31T07:51:01.527Z,1.30
2023-03-31T07:53:28.808Z,1.55
2023-03-31T07:55:56.381Z,1.15
2023-03-31T07:58:23.830Z,1.40
2023-03-31T08:00:51.288Z,1.17
2023-03-31T08:03:18.465Z,1.30
2023-03-31T08:05:45.649Z,1.08
2023-03-31T08:08:13.032Z,1.10
2023-03-31T08:10:40.359Z,1.60
2023-03-31T08:13:07.592Z,0.95
2023-03-31T08:15:34.774Z,1.10
2023-03-31T08:18:03.127Z,1.20
2023-03-31T08:20:30.634Z,1.92
2023-03-31T08:22:57.837Z,2.00
2023-03-31T08:25:25.170Z,1.20
2023-03-31T08:27:52.407Z,1.67
2023-03-31T08:30:20.588Z,1.42
2023-03-31T08:32:47.831Z,1.43
2023-03-31T08:35:15.611Z,1.73
2023-03-31T08:37:45.858Z,1.60
2023-03-31T08:40:22.169Z,1.08
2023-03-31T08:43:08.846Z,1.08
2023-03-31T08:45:39.706Z,1.38
2023-03-31T08:48:27.661Z,1.13
2023-03-31T08:51:00.580Z,1.00
2023-03-31T08:53:31.543Z,1.30
2023-03-31T08:55:59.805Z,1.38
2023-03-31T08:58:40.592Z,1.33
2023-03-31T09:01:44.126Z,1.13
2023-03-31T09:04:51.537Z,1.10
2023-03-31T09:07:30.412Z,1.00
2023-03-31T09:10:28.414Z,1.00
2023-03-31T09:13:25.307Z,1.47
2023-03-31T09:16:16.650Z,0.90
2023-03-31T09:18:47.356Z,1.40
2023-03-31T09:21:26.715Z,1.17
2023-03-31T09:24:03.018Z,1.10
2023-03-31T09:26:38.616Z,1.30
2023-03-31T09:29:24.519Z,0.90
2023-03-31T09:31:51.840Z,1.15
2023-03-31T09:34:31.448Z,1.20
2023-03-31T09:36:59.067Z,1.10
2023-03-31T09:39:26.407Z,1.15
2023-03-31T09:41:55.504Z,1.08
2023-03-31T09:44:38.739Z,1.33
2023-03-31T09:47:11.521Z,1.33
2023-03-31T09:49:39.040Z,1.10
2023-03-31T09:52:29.035Z,0.95
2023-03-31T09:54:58.528Z,1.00
2023-03-31T09:57:33.747Z,1.40
2023-03-31T10:00:19.070Z,1.40
2023-03-31T10:02:54.439Z,1.00
2023-03-31T10:05:37.631Z,1.15
2023-03-31T10:08:21.708Z,1.08
2023-03-31T10:11:09.299Z,0.98
2023-03-31T10:14:04.250Z,1.00
2023-03-31T10:16:33.994Z,1.50
2023-03-31T10:19:17.278Z,1.45
2023-03-31T10:21:47.201Z,1.00
2023-03-31T10:24:20.700Z,1.33
2023-03-31T10:26:50.316Z,1.27
2023-03-31T10:29:25.554Z,1.50
2023-03-31T10:31:52.947Z,1.15
2023-03-31T10:34:21.688Z,1.00
2023-03-31T10:36:52.679Z,1.10
2023-03-31T10:39:20.492Z,1.27
2023-03-31T10:41:51.780Z,1.30
2023-03-31T10:44:36.980Z,1.00
2023-03-31T10:47:24.067Z,1.20
2023-03-31T10:49:57.944Z,0.90
2023-03-31T10:52:30.066Z,0.90
2023-03-31T10:55:00.196Z,1.05
2023-03-31T10:57:39.987Z,1.20
2023-03-31T11:00:13.253Z,1.00
2023-03-31T11:02:50.025Z,1.30
2023-03-31T11:05:42.478Z,1.17
2023-03-31T11:08:19.941Z,1.40
2023-03-31T11:11:05.219Z,1.50
2023-03-31T11:13:48.833Z,1.20
2023-03-31T11:16:16.282Z,0.90
2023-03-31T11:19:11.577Z,1.33
2023-03-31T11:21:54.095Z,1.23
2023-03-31T11:25:06.181Z,1.40
2023-03-31T11:28:10.548Z,1.20
2023-03-31T11:30:51.525Z,1.10
2023-03-31T11:33:31.503Z,1.10
2023-03-31T11:36:12.460Z,0.85
2023-03-31T11:39:03.797Z,1.02
2023-03-31T11:41:42.312Z,1.15
2023-03-31T11:44:14.684Z,0.93
2023-03-31T11:46:54.207Z,1.00
2023-03-31T11:49:24.830Z,1.08
2023-03-31T11:51:59.653Z,0.90
2023-03-31T11:54:34.822Z,0.90
2023-03-31T11:57:17.974Z,1.00
2023-03-31T11:59:47.485Z,1.15
2023-03-31T12:02:22.194Z,1.20
2023-03-31T12:04:56.030Z,0.88
2023-03-31T12:07:40.091Z,0.88
2023-03-31T12:10:41.756Z,1.13
2023-03-31T12:13:44.393Z,1.10
2023-03-31T12:16:28.628Z,1.02
2023-03-31T12:19:19.785Z,1.00
2023-03-31T12:21:59.102Z,0.90
2023-03-31T12:24:26.341Z,1.40
2023-03-31T12:27:17.404Z,1.75
2023-03-31T12:29:53.527Z,1.38
2023-03-31T12:32:24.147Z,1.17
2023-03-31T12:35:16.755Z,1.42
2023-03-31T12:38:22.044Z,1.30
2023-03-31T12:41:12.727Z,1.15
2023-03-31T12:44:15.566Z,1.33
2023-03-31T12:47:12.522Z,1.75
2023-03-31T12:49:47.245Z,1.45
2023-03-31T12:52:35.945Z,1.13
2023-03-31T12:55:24.158Z,1.35
2023-03-31T12:57:54.115Z,1.55
2023-03-31T13:00:22.986Z,1.50
2023-03-31T13:02:51.404Z,1.58
2023-03-31T13:05:37.487Z,1.50
2023-03-31T13:08:05.703Z,1.67
2023-03-31T13:10:33.528Z,1.53
2023-03-31T13:13:13.212Z,1.27
2023-03-31T13:15:40.816Z,1.40
2023-03-31T13:18:16.397Z,1.10
2023-03-31T13:20:43.768Z,1.10
2023-03-31T13:23:20.358Z,1.33
2023-03-31T13:25:55.484Z,1.42
2023-03-31T13:28:22.682Z,1.30
2023-03-31T13:30:55.698Z,1.58
2023-03-31T13:33:32.180Z,1.00
2023-03-31T13:36:19.653Z,1.42
2023-03-31T13:39:32.035Z,1.30
2023-03-31T13:42:17.798Z,1.55
2023-03-31T13:45:10.230Z,1.23
2023-03-31T13:48:19.352Z,1.20
2023-03-31T13:51:05.072Z,1.13
2023-03-31T13:53:54.514Z,1.58
2023-03-31T13:56:57.053Z,1.20
2023-03-31T13:59:53.111Z,1.13
2023-03-31T14:02:35.411Z,1.10
2023-03-31T14:05:21.171Z,1.05
2023-03-31T14:08:05.472Z,1.23
2023-03-31T14:10:37.681Z,0.95
2023-03-31T14:13:18.388Z,1.02
2023-03-31T14:15:55.621Z,0.98
2023-03-31T14:18:29.711Z,0.90
2023-03-31T14:21:21.683Z,1.10
2023-03-31T14:24:21.355Z,1.00
2023-03-31T14:27:18.634Z,1.10
2023-03-31T14:29:51.883Z,0.85
2023-03-31T14:33:13.494Z,0.98
2023-03-31T14:35:58.703Z,1.20
2023-03-31T14:38:29.673Z,0.93
2023-03-31T14:41:01.166Z,1.13
2023-03-31T14:43:33.958Z,1.00
2023-03-31T14:46:05.606Z,1.20
2023-03-31T14:48:38.522Z,0.90
2023-03-31T14:51:11.286Z,1.00
2023-03-31T14:53:39.115Z,0.82
2023-03-31T14:56:08.575Z,1.10
2023-03-31T14:58:42.443Z,0.75
2023-03-31T15:01:13.185Z,1.00
2023-03-31T15:03:41.729Z,0.63
2023-03-31T15:06:09.664Z,0.75
2023-03-31T15:08:37.479Z,0.80
2023-03-31T15:13:46.910Z,0.80
2023-03-31T15:16:28.563Z,0.60
2023-03-31T15:19:04.940Z,0.85
2023-03-31T15:21:34.322Z,0.70
2023-03-31T15:24:04.664Z,0.88
2023-03-31T15:26:41.225Z,0.80
2023-03-31T15:29:17.867Z,0.80
2023-03-31T15:31:45.406Z,1.15
2023-03-31T15:34:16.055Z,0.85
2023-03-31T15:36:43.752Z,1.02
2023-03-31T15:39:12.595Z,0.70
2023-03-31T15:41:39.916Z,0.63
2023-03-31T15:44:27.336Z,0.65
2023-03-31T15:47:12.203Z,0.80
2023-03-31T15:49:49.039Z,0.88
2023-03-31T15:52:46.793Z,0.85
2023-03-31T15:55:27.355Z,0.50
2023-03-31T15:57:56.147Z,1.08
2023-03-31T16:00:48.177Z,0.65
2023-03-31T16:03:35.349Z,0.70
2023-03-31T16:06:09.584Z,1.00
2023-03-31T16:08:48.941Z,0.82
2023-03-31T16:11:22.416Z,1.38
2023-03-31T16:13:56.472Z,0.70
2023-03-31T16:16:25.359Z,1.02
2023-03-31T16:18:54.902Z,0.75
2023-03-31T16:21:26.550Z,0.90
2023-03-31T16:23:56.591Z,0.77
2023-03-31T16:26:26.208Z,0.93
2023-03-31T16:28:55.062Z,0.90
2023-03-31T16:31:34.905Z,0.70
2023-03-31T16:34:04.113Z,0.90
2023-03-31T16:36:31.465Z,0.93
2023-03-31T16:39:02.200Z,1.27
2023-03-31T16:41:30.711Z,0.80
2023-03-31T16:43:57.956Z,0.60
2023-03-31T16:46:25.793Z,0.90
2023-03-31T16:48:53.341Z,0.75
2023-03-31T16:51:20.988Z,1.10
2023-03-31T16:53:48.647Z,0.68
2023-03-31T16:56:16.307Z,1.20
2023-03-31T16:58:43.817Z,1.02
2023-03-31T17:01:11.788Z,1.17
2023-03-31T17:03:41.568Z,0.73
2023-03-31T17:06:13.378Z,0.70
2023-03-31T17:08:41.170Z,0.60
2023-03-31T17:11:11.972Z,0.70
2023-03-31T17:13:40.388Z,0.80
2023-03-31T17:16:16.179Z,0.90
2023-03-31T17:18:49.098Z,0.60
2023-03-31T17:21:19.327Z,0.80
2023-03-31T17:23:47.366Z,0.73
2023-03-31T17:26:15.435Z,0.60
2023-03-31T17:28:43.174Z,0.60
2023-03-31T17:31:18.155Z,0.52
2023-03-31T17:33:46.273Z,0.85
2023-03-31T17:36:13.800Z,0.70
2023-03-31T17:38:41.865Z,0.50
2023-03-31T17:41:12.789Z,0.60
2023-03-31T17:43:40.402Z,0.75
2023-03-31T17:46:12.940Z,0.70
2023-03-31T17:48:41.126Z,0.57
2023-03-31T17:51:14.849Z,0.60
2023-03-31T17:53:49.274Z,0.50
2023-03-31T17:56:17.553Z,0.70
2023-03-31T17:58:45.662Z,0.75
2023-03-31T18:01:13.472Z,0.65
2023-03-31T18:03:41.302Z,0.70
2023-03-31T18:06:11.755Z,0.80
2023-03-31T18:08:39.774Z,0.73
2023-03-31T18:11:08.533Z,0.40
2023-03-31T18:13:37.541Z,0.88
2023-03-31T18:16:05.652Z,0.63
2023-03-31T18:18:33.509Z,0.40
2023-03-31T18:21:04.584Z,0.80
2023-03-31T18:23:32.150Z,0.82
2023-03-31T18:25:59.655Z,0.85
2023-03-31T18:28:27.394Z,1.00
2023-03-31T18:30:54.622Z,0.80
2023-03-31T18:33:22.003Z,1.13
2023-03-31T18:35:50.313Z,0.68
2023-03-31T18:38:18.438Z,0.70
2023-03-31T18:40:53.361Z,0.68
2023-03-31T18:43:23.782Z,0.68
2023-03-31T18:45:53.638Z,0.70
2023-03-31T18:48:22.337Z,0.52
2023-03-31T18:50:51.865Z,0.60
2023-03-31T18:53:20.760Z,0.70
2023-03-31T18:58:19.078Z,0.88
2023-03-31T19:00:46.394Z,0.75
2023-03-31T19:03:13.956Z,0.70
2023-03-31T19:05:41.608Z,0.70
2023-03-31T19:08:08.958Z,0.60
2023-03-31T19:10:36.536Z,0.52
2023-03-31T19:13:03.845Z,0.75
2023-03-31T19:15:31.154Z,0.73
2023-03-31T19:17:58.526Z,0.65
2023-03-31T19:20:26.211Z,0.77
2023-03-31T19:22:53.688Z,0.73
2023-03-31T19:25:21.480Z,0.55
2023-03-31T19:27:49.288Z,0.70
2023-03-31T19:30:22.206Z,0.70
2023-03-31T19:32:49.994Z,0.50
2023-03-31T19:35:18.308Z,0.73
2023-03-31T19:37:46.144Z,0.70
2023-03-31T19:40:13.663Z,0.68
2023-03-31T19:42:42.168Z,0.90
2023-03-31T19:45:09.847Z,0.68
2023-03-31T19:47:37.106Z,0.80
2023-03-31T19:50:04.477Z,0.70
2023-03-31T19:52:31.722Z,0.65
2023-03-31T19:55:00.092Z,0.60
2023-03-31T19:57:27.392Z,0.68
2023-03-31T19:59:54.618Z,0.98
2023-03-31T20:02:22.360Z,0.95
2023-03-31T20:04:49.857Z,0.90
2023-03-31T20:07:17.261Z,1.00
2023-03-31T20:09:45.857Z,1.10
2023-03-31T20:12:13.029Z,1.20
2023-03-31T20:14:40.336Z,1.02
2023-03-31T20:17:07.777Z,1.13
2023-03-31T20:19:35.033Z,1.00
2023-03-31T20:22:02.446Z,1.10
2023-03-31T20:24:30.130Z,1.27
2023-03-31T20:26:58.616Z,1.30
2023-03-31T20:29:26.310Z,1.17
2023-03-31T20:31:53.751Z,1.05
2023-03-31T20:34:22.624Z,1.23
2023-03-31T20:36:51.547Z,1.50
2023-03-31T20:39:19.897Z,1.42
2023-03-31T20:41:49.537Z,1.17
2023-03-31T20:44:17.312Z,1.30
2023-03-31T20:46:45.094Z,1.63
2023-03-31T20:49:12.743Z,1.30
2023-03-31T20:51:40.213Z,1.25
2023-03-31T20:54:08.114Z,1.42
2023-03-31T20:56:38.012Z,1.20
2023-03-31T20:59:08.042Z,1.40
2023-03-31T21:01:37.299Z,1.40
2023-03-31T21:04:06.748Z,1.10
2023-03-31T21:06:42.693Z,1.00
2023-03-31T21:09:11.549Z,1.20
2023-03-31T21:11:41.852Z,1.17
2023-03-31T21:14:15.016Z,1.10
2023-03-31T21:16:42.399Z,1.17
2023-03-31T21:19:10.090Z,1.13
2023-03-31T21:21:39.923Z,1.20
2023-03-31T21:24:07.969Z,0.98
2023-03-31T21:26:35.217Z,1.10
2023-03-31T21:29:02.444Z,1.08
2023-03-31T21:31:29.646Z,1.35
2023-03-31T21:33:57.680Z,1.20
2023-03-31T21:36:25.489Z,1.07
2023-03-31T21:38:54.283Z,1.00
2023-03-31T21:41:27.950Z,1.15
2023-03-31T21:43:55.536Z,1.13
2023-03-31T21:46:26.921Z,1.45
2023-03-31T21:48:54.614Z,1.70
2023-03-31T21:51:23.204Z,1.25
2023-03-31T21:53:53.171Z,1.08
2023-03-31T21:56:20.349Z,1.33
2023-03-31T21:58:47.624Z,1.20
2023-03-31T22:01:15.344Z,1.00
2023-03-31T22:03:43.119Z,1.17
2023-03-31T22:06:11.207Z,1.13
2023-03-31T22:08:39.032Z,1.55
2023-03-31T22:11:08.749Z,0.80
2023-03-31T22:13:36.393Z,1.10
2023-03-31T22:16:04.371Z,1.10
2023-03-31T22:18:31.986Z,1.10
2023-03-31T22:20:59.330Z,1.13
2023-03-31T22:23:27.529Z,0.80
2023-03-31T22:25:54.979Z,1.00
2023-03-31T22:28:22.222Z,1.10
2023-03-31T22:30:49.379Z,1.10
2023-03-31T22:33:16.701Z,0.82
2023-03-31T22:35:44.443Z,0.80
2023-03-31T22:38:13.961Z,0.90
2023-03-31T22:40:41.326Z,0.70
2023-03-31T22:43:08.822Z,1.20
2023-03-31T22:45:37.835Z,0.70
2023-03-31T22:48:07.161Z,0.90
2023-03-31T22:50:34.331Z,1.00
2023-03-31T22:53:01.762Z,0.82
2023-03-31T22:55:29.506Z,0.80
2023-03-31T22:57:57.116Z,1.00
2023-03-31T23:00:24.470Z,0.70
2023-03-31T23:02:51.726Z,0.88
2023-03-31T23:05:19.054Z,0.80
2023-03-31T23:07:46.611Z,0.90
2023-03-31T23:10:13.769Z,0.88
2023-03-31T23:12:41.178Z,0.95
2023-03-31T23:15:08.585Z,1.02
2023-03-31T23:17:35.809Z,0.70
2023-03-31T23:20:03.991Z,0.77
2023-03-31T23:22:31.182Z,0.87
2023-03-31T23:24:58.372Z,0.68
2023-03-31T23:27:25.645Z,0.80
2023-03-31T23:29:52.807Z,0.80
2023-03-31T23:32:19.973Z,0.88
2023-03-31T23:34:47.234Z,0.80
2023-03-31T23:37:15.625Z,0.93
2023-03-31T23:39:42.837Z,0.90
2023-03-31T23:42:12.532Z,0.85
2023-03-31T23:44:39.840Z,0.75
2023-03-31T23:47:07.090Z,0.80
2023-03-31T23:49:34.280Z,0.88
2023-03-31T23:52:01.468Z,0.80
2023-03-31T23:54:28.893Z,0.82
2023-03-31T23:56:56.117Z,0.93
2023-03-31T23:59:23.358Z,0.70
